Time;durP1;ratioP1;P1;durP2;ratioP2;P2;SDS_P1;SDS_P2;PMS_P1;PMS_P2;Temp;Humidity;BMP_temperature;BMP_pressure;BME280_temperature;BME280_humidity;BME280_pressure;Samples;Min_cycle;Max_cycle;Signal;HPM_P1;HPM_P2
2022/09/30 00:01:31;;;;;;;10.85;7.55;;;9.00;99.90;;;;;;5033383;28;20048;-65
2022/09/30 00:03:58;;;;;;;13.57;8.27;;;8.90;99.90;;;;;;5032122;28;20553;-62
2022/09/30 00:06:25;;;;;;;12.32;8.38;;;8.90;99.90;;;;;;5033056;28;20041;-61
2022/09/30 00:08:52;;;;;;;11.82;8.68;;;8.90;99.90;;;;;;5019493;28;20089;-64
2022/09/30 00:11:18;;;;;;;14.30;9.73;;;8.80;99.90;;;;;;5013387;28;20095;-64
2022/09/30 00:13:45;;;;;;;15.63;10.35;;;8.80;99.90;;;;;;5027444;28;20145;-64
2022/09/30 00:16:12;;;;;;;16.33;10.65;;;8.70;99.90;;;;;;5033026;28;20073;-62
2022/09/30 00:18:39;;;;;;;14.98;10.10;;;8.80;99.90;;;;;;5014465;28;20057;-62
2022/09/30 00:21:06;;;;;;;14.75;11.50;;;8.70;99.90;;;;;;5033127;28;20037;-63
2022/09/30 00:23:32;;;;;;;17.33;13.15;;;8.80;99.90;;;;;;5015222;28;20100;-62
2022/09/30 00:25:59;;;;;;;25.08;13.63;;;8.70;99.90;;;;;;5033445;28;20128;-62
2022/09/30 00:28:26;;;;;;;16.00;11.90;;;8.70;99.90;;;;;;5032913;28;20042;-62
2022/09/30 00:30:52;;;;;;;14.13;11.45;;;8.70;99.90;;;;;;5031761;28;20124;-64
2022/09/30 00:33:19;;;;;;;16.23;11.80;;;8.60;99.90;;;;;;5032765;28;20128;-64
2022/09/30 00:35:46;;;;;;;14.43;11.05;;;8.70;99.90;;;;;;5033124;28;20073;-61
2022/09/30 00:38:13;;;;;;;14.57;10.85;;;8.70;99.90;;;;;;5032673;28;20072;-62
2022/09/30 00:40:39;;;;;;;18.80;10.38;;;8.70;99.90;;;;;;5033499;28;20456;-63
2022/09/30 00:43:06;;;;;;;15.93;10.20;;;8.70;99.90;;;;;;5034801;28;20512;-62
2022/09/30 00:45:33;;;;;;;12.70;9.90;;;8.70;99.90;;;;;;5035693;28;20390;-62
2022/09/30 00:48:00;;;;;;;12.43;8.85;;;8.70;99.90;;;;;;5036492;28;20104;-63
2022/09/30 00:50:26;;;;;;;14.05;9.15;;;8.60;99.90;;;;;;5036361;28;20091;-62
2022/09/30 00:52:53;;;;;;;11.73;8.90;;;8.60;99.90;;;;;;5036618;28;20424;-61
2022/09/30 00:55:20;;;;;;;13.07;8.75;;;8.60;99.90;;;;;;5036554;28;20045;-61
2022/09/30 00:57:46;;;;;;;15.25;8.55;;;8.50;99.90;;;;;;5035444;28;20410;-65
2022/09/30 01:00:13;;;;;;;12.63;8.20;;;8.50;99.90;;;;;;5035128;28;20092;-65
2022/09/30 01:02:40;;;;;;;11.70;8.25;;;8.50;99.90;;;;;;5035901;28;20554;-63
2022/09/30 01:05:08;;;;;;;12.23;7.85;;;8.50;99.90;;;;;;5035863;28;20037;-64
2022/09/30 01:07:35;;;;;;;13.15;8.23;;;8.50;99.90;;;;;;5034571;28;20076;-63
2022/09/30 01:10:02;;;;;;;16.58;9.52;;;8.40;99.90;;;;;;5034110;28;20120;-64
2022/09/30 01:12:29;;;;;;;12.10;8.48;;;8.40;99.90;;;;;;5024525;28;20050;-63
2022/09/30 01:14:55;;;;;;;13.82;8.50;;;8.40;99.90;;;;;;5015765;28;20060;-64
2022/09/30 01:17:22;;;;;;;14.57;9.88;;;8.40;99.90;;;;;;5014518;28;20508;-63
2022/09/30 01:19:50;;;;;;;13.25;10.23;;;8.40;99.90;;;;;;5016254;28;20073;-64
2022/09/30 01:22:17;;;;;;;13.63;9.68;;;8.40;99.90;;;;;;5035303;28;20461;-65
2022/09/30 01:24:44;;;;;;;15.23;9.80;;;8.40;99.90;;;;;;5034905;28;20045;-63
2022/09/30 01:27:10;;;;;;;11.20;9.55;;;8.40;99.90;;;;;;5034892;28;20458;-64
2022/09/30 01:29:37;;;;;;;15.18;9.90;;;8.40;99.90;;;;;;5035819;28;20112;-62
2022/09/30 01:32:04;;;;;;;10.30;9.15;;;8.50;99.90;;;;;;5017931;28;20139;-63
2022/09/30 01:34:30;;;;;;;13.68;9.50;;;8.50;99.90;;;;;;5035929;28;20354;-66
2022/09/30 01:36:58;;;;;;;11.75;8.20;;;8.50;99.90;;;;;;5035746;28;20136;-65
2022/09/30 01:39:25;;;;;;;12.02;8.50;;;8.50;99.90;;;;;;5034865;28;20038;-62
2022/09/30 01:41:51;;;;;;;10.13;8.20;;;8.60;99.90;;;;;;5034363;28;20546;-63
2022/09/30 01:44:18;;;;;;;9.80;8.57;;;8.60;99.90;;;;;;5035278;28;20037;-64
2022/09/30 01:46:45;;;;;;;9.63;8.18;;;8.60;99.90;;;;;;5017401;28;20480;-63
2022/09/30 01:49:12;;;;;;;9.85;8.65;;;8.70;99.90;;;;;;5035805;28;20043;-63
2022/09/30 01:51:38;;;;;;;10.98;8.55;;;8.80;99.90;;;;;;5034490;28;20511;-64
2022/09/30 01:54:05;;;;;;;11.20;8.45;;;8.80;99.90;;;;;;5034526;28;20113;-62
2022/09/30 01:56:32;;;;;;;9.98;7.63;;;8.80;99.90;;;;;;5033956;28;20045;-62
2022/09/30 01:58:59;;;;;;;10.60;7.82;;;8.90;99.90;;;;;;5033943;28;20050;-64
2022/09/30 02:01:25;;;;;;;10.60;8.20;;;8.90;99.90;;;;;;5034808;28;20038;-66
2022/09/30 02:03:52;;;;;;;12.95;7.95;;;8.90;99.90;;;;;;5035396;28;20113;-62
2022/09/30 02:06:19;;;;;;;9.88;8.02;;;8.90;99.90;;;;;;5034333;28;20121;-63
2022/09/30 02:08:46;;;;;;;10.88;7.82;;;8.90;99.90;;;;;;5034153;28;20389;-63
2022/09/30 02:11:13;;;;;;;10.15;7.32;;;8.90;99.90;;;;;;5034387;28;20069;-64
2022/09/30 02:13:39;;;;;;;12.13;8.52;;;8.90;99.90;;;;;;5034416;28;20084;-64
2022/09/30 02:16:11;;;;;;;11.20;7.63;;;8.90;99.90;;;;;;5034387;28;20059;-66
2022/09/30 02:18:39;;;;;;;8.48;7.28;;;8.80;99.90;;;;;;5033118;28;20049;-62
2022/09/30 02:21:06;;;;;;;11.32;7.47;;;8.80;99.90;;;;;;5033648;28;20079;-62
2022/09/30 02:23:33;;;;;;;10.88;7.45;;;8.80;99.90;;;;;;5034501;28;20040;-65
2022/09/30 02:26:00;;;;;;;11.27;7.70;;;8.80;99.90;;;;;;5034383;28;20128;-63
2022/09/30 02:28:27;;;;;;;11.73;7.38;;;8.70;99.90;;;;;;5016738;28;20435;-64
2022/09/30 02:30:54;;;;;;;11.07;9.13;;;8.60;99.90;;;;;;5034802;28;20041;-63
2022/09/30 02:33:20;;;;;;;11.75;8.77;;;8.60;99.90;;;;;;5033482;28;20051;-63
2022/09/30 02:35:47;;;;;;;13.25;9.23;;;8.50;99.90;;;;;;5032587;28;20065;-63
2022/09/30 02:38:14;;;;;;;14.30;9.00;;;8.50;99.90;;;;;;5034425;28;20099;-65
2022/09/30 02:40:41;;;;;;;14.35;8.80;;;8.50;99.90;;;;;;5034065;28;20132;-64
2022/09/30 02:43:08;;;;;;;17.08;9.95;;;8.40;99.90;;;;;;5033882;28;20095;-64
2022/09/30 02:45:34;;;;;;;14.35;9.52;;;8.40;99.90;;;;;;5033843;28;20120;-67
2022/09/30 02:48:01;;;;;;;15.32;9.35;;;8.40;99.90;;;;;;5033907;28;20091;-64
2022/09/30 02:50:28;;;;;;;12.73;8.98;;;8.30;99.90;;;;;;5034012;28;20041;-62
2022/09/30 02:52:54;;;;;;;11.75;8.85;;;8.30;99.90;;;;;;5034324;28;20045;-63
2022/09/30 02:55:21;;;;;;;13.35;9.63;;;8.30;99.90;;;;;;5033682;28;20616;-62
2022/09/30 02:57:48;;;;;;;13.43;8.82;;;8.30;99.90;;;;;;5032996;28;20125;-64
2022/09/30 03:00:15;;;;;;;14.57;8.80;;;8.30;99.90;;;;;;5034075;28;20069;-61
2022/09/30 03:02:41;;;;;;;11.45;8.68;;;8.40;99.90;;;;;;5032381;28;20137;-63
2022/09/30 03:05:08;;;;;;;12.45;8.85;;;8.40;99.90;;;;;;5033552;28;20246;-63
2022/09/30 03:07:35;;;;;;;10.20;7.78;;;8.50;99.90;;;;;;5033935;28;20043;-64
2022/09/30 03:10:01;;;;;;;12.68;7.50;;;8.50;99.90;;;;;;5033644;28;20041;-63
2022/09/30 03:12:28;;;;;;;10.13;7.68;;;8.60;99.90;;;;;;5032870;28;20041;-64
2022/09/30 03:14:55;;;;;;;15.52;8.65;;;8.70;99.90;;;;;;5033202;28;20096;-60
2022/09/30 03:17:21;;;;;;;14.52;9.20;;;8.70;99.90;;;;;;5031868;28;20034;-62
2022/09/30 03:19:48;;;;;;;16.30;8.73;;;8.80;99.90;;;;;;5033580;28;20049;-63
2022/09/30 03:22:16;;;;;;;12.65;8.93;;;8.80;99.90;;;;;;5033216;28;20470;-61
2022/09/30 03:24:44;;;;;;;12.02;8.63;;;8.90;99.90;;;;;;5033706;28;20473;-64
2022/09/30 03:27:11;;;;;;;11.85;8.60;;;8.90;99.90;;;;;;5032980;28;20038;-65
2022/09/30 03:29:38;;;;;;;13.05;8.27;;;9.00;99.90;;;;;;5033482;28;20068;-65
2022/09/30 03:32:05;;;;;;;14.45;8.20;;;9.00;99.90;;;;;;5031593;28;20099;-63
2022/09/30 03:34:32;;;;;;;17.05;8.93;;;9.10;99.90;;;;;;5033612;28;20051;-61
2022/09/30 03:37:01;;;;;;;10.93;8.43;;;9.10;99.90;;;;;;5033642;28;20057;-62
2022/09/30 03:39:30;;;;;;;10.98;7.90;;;9.10;99.90;;;;;;5033294;28;20133;-63
2022/09/30 03:41:56;;;;;;;12.43;8.35;;;9.20;99.90;;;;;;5014293;28;20038;-63
2022/09/30 03:44:23;;;;;;;10.15;7.43;;;9.20;99.90;;;;;;5033927;28;20044;-64
2022/09/30 03:46:50;;;;;;;9.43;8.02;;;9.20;99.90;;;;;;5032160;28;20117;-66
2022/09/30 03:49:17;;;;;;;9.75;7.60;;;9.30;99.90;;;;;;5031611;28;20103;-65
2022/09/30 03:51:44;;;;;;;8.65;6.75;;;9.30;99.90;;;;;;5033179;28;20052;-67
2022/09/30 03:54:11;;;;;;;6.90;6.05;;;9.40;99.90;;;;;;5033531;28;20132;-65
2022/09/30 03:56:43;;;;;;;8.20;6.70;;;9.40;99.90;;;;;;5033314;28;20049;-66
2022/09/30 03:59:10;;;;;;;7.70;6.32;;;9.40;99.90;;;;;;5031851;28;20392;-69
2022/09/30 04:01:38;;;;;;;8.07;6.10;;;9.40;99.90;;;;;;5029698;28;20081;-66
2022/09/30 04:04:05;;;;;;;7.45;5.70;;;9.40;99.90;;;;;;5033119;28;20045;-68
2022/09/30 04:06:32;;;;;;;9.10;6.80;;;9.40;99.90;;;;;;5031929;28;20045;-66
2022/09/30 04:08:58;;;;;;;7.35;6.57;;;9.50;99.90;;;;;;5020596;28;20042;-62
2022/09/30 04:11:25;;;;;;;11.38;7.22;;;9.50;99.90;;;;;;5023073;28;20124;-64
2022/09/30 04:13:52;;;;;;;9.45;7.68;;;9.60;99.90;;;;;;5033029;28;20061;-66
2022/09/30 04:16:19;;;;;;;8.68;7.13;;;9.50;99.90;;;;;;5016830;28;20111;-65
2022/09/30 04:18:45;;;;;;;11.23;8.00;;;9.60;99.90;;;;;;5036761;28;20439;-65
2022/09/30 04:21:12;;;;;;;10.25;7.38;;;9.60;99.90;;;;;;5035402;28;20477;-65
2022/09/30 04:23:39;;;;;;;9.93;7.20;;;9.70;99.90;;;;;;5034931;28;20049;-61
2022/09/30 04:26:06;;;;;;;8.95;7.97;;;9.70;99.90;;;;;;5019348;28;20088;-67
2022/09/30 04:28:32;;;;;;;8.88;7.50;;;9.70;99.90;;;;;;5034877;28;20076;-67
2022/09/30 04:30:59;;;;;;;11.02;8.80;;;9.80;99.90;;;;;;5036397;28;20128;-68
2022/09/30 04:33:26;;;;;;;15.02;9.95;;;9.80;99.90;;;;;;5034874;28;20500;-66
2022/09/30 04:35:53;;;;;;;15.25;10.40;;;9.80;99.90;;;;;;5034941;28;20497;-65
2022/09/30 04:38:19;;;;;;;14.82;10.45;;;9.90;99.90;;;;;;5037033;28;20099;-66
2022/09/30 04:40:48;;;;;;;15.95;10.77;;;9.90;99.90;;;;;;5033490;28;20041;-63
2022/09/30 04:43:16;;;;;;;17.85;11.27;;;10.00;99.90;;;;;;5034612;28;20088;-64
2022/09/30 04:45:43;;;;;;;19.75;11.65;;;10.00;99.90;;;;;;5034570;28;20035;-64
2022/09/30 04:48:10;;;;;;;22.83;12.05;;;10.00;99.90;;;;;;5036620;28;20037;-66
2022/09/30 04:50:37;;;;;;;26.77;12.48;;;10.10;99.90;;;;;;5035587;28;20088;-62
2022/09/30 04:53:05;;;;;;;22.63;12.75;;;10.10;99.90;;;;;;5036020;28;20540;-70
2022/09/30 04:55:32;;;;;;;25.13;14.90;;;10.10;99.90;;;;;;5034158;28;20037;-64
2022/09/30 04:57:59;;;;;;;24.98;14.32;;;10.10;99.90;;;;;;5034785;28;20084;-63
2022/09/30 05:00:25;;;;;;;28.38;16.75;;;10.20;99.90;;;;;;5035212;28;20120;-61
2022/09/30 05:02:52;;;;;;;27.40;16.15;;;10.20;99.90;;;;;;5034802;28;20062;-62
2022/09/30 05:05:19;;;;;;;31.17;16.40;;;10.20;99.90;;;;;;5035398;28;20128;-61
2022/09/30 05:07:46;;;;;;;29.42;16.92;;;10.20;99.90;;;;;;5034350;28;20037;-65
2022/09/30 05:10:13;;;;;;;32.53;16.35;;;10.30;99.90;;;;;;5033004;28;20030;-63
2022/09/30 05:12:39;;;;;;;24.55;15.45;;;10.30;99.90;;;;;;5032657;28;20056;-63
2022/09/30 05:15:06;;;;;;;23.70;14.75;;;10.30;99.90;;;;;;5031720;28;20092;-67
2022/09/30 05:17:33;;;;;;;19.75;13.45;;;10.30;99.90;;;;;;5030401;28;20465;-65
2022/09/30 05:20:00;;;;;;;19.63;12.90;;;10.30;99.90;;;;;;5034946;28;20041;-66
2022/09/30 05:22:27;;;;;;;19.02;12.38;;;10.30;99.90;;;;;;5033384;28;20176;-62
2022/09/30 05:24:55;;;;;;;18.85;11.63;;;10.30;99.90;;;;;;5034713;28;20447;-63
2022/09/30 05:27:21;;;;;;;15.30;11.40;;;10.30;99.90;;;;;;5034858;28;20095;-64
2022/09/30 05:29:48;;;;;;;16.38;11.73;;;10.40;99.90;;;;;;5030702;28;20121;-64
2022/09/30 05:32:15;;;;;;;22.45;12.40;;;10.40;99.90;;;;;;5035161;28;20072;-64
2022/09/30 05:34:41;;;;;;;16.58;12.48;;;10.40;99.90;;;;;;5031845;28;20125;-62
2022/09/30 05:37:08;;;;;;;23.77;12.57;;;10.40;99.90;;;;;;5035259;28;20096;-65
2022/09/30 05:39:35;;;;;;;21.33;13.38;;;10.40;99.90;;;;;;5033135;28;20072;-64
2022/09/30 05:42:02;;;;;;;24.33;13.48;;;10.50;99.90;;;;;;5033451;28;20077;-63
2022/09/30 05:44:29;;;;;;;19.42;12.95;;;10.40;99.90;;;;;;5033366;28;20072;-67
2022/09/30 05:46:56;;;;;;;25.83;13.98;;;10.50;99.90;;;;;;5016914;28;20228;-67
2022/09/30 05:49:23;;;;;;;24.77;14.10;;;10.40;99.90;;;;;;5035505;28;20033;-64
2022/09/30 05:51:50;;;;;;;24.75;14.57;;;10.40;99.90;;;;;;5034426;28;20072;-64
2022/09/30 05:54:17;;;;;;;22.73;15.50;;;10.50;99.90;;;;;;5034904;28;20060;-63
2022/09/30 05:56:43;;;;;;;26.67;14.90;;;10.50;99.90;;;;;;5014687;28;20060;-65
2022/09/30 05:59:10;;;;;;;24.77;15.68;;;10.50;99.90;;;;;;5035072;28;20037;-62
2022/09/30 06:01:37;;;;;;;27.77;16.70;;;10.50;99.90;;;;;;5015800;28;20052;-62
2022/09/30 06:04:04;;;;;;;27.48;16.48;;;10.50;99.90;;;;;;5035725;28;20045;-64
2022/09/30 06:06:30;;;;;;;27.27;16.00;;;10.50;99.90;;;;;;5034302;28;20037;-64
2022/09/30 06:08:58;;;;;;;34.60;15.38;;;10.50;99.90;;;;;;5032631;28;20038;-63
2022/09/30 06:11:25;;;;;;;30.95;16.13;;;10.50;99.90;;;;;;5033764;28;20044;-65
2022/09/30 06:13:52;;;;;;;23.17;15.23;;;10.50;99.90;;;;;;5033088;28;20057;-61
2022/09/30 06:16:19;;;;;;;25.52;16.08;;;10.50;99.90;;;;;;5030847;28;20045;-62
2022/09/30 06:18:45;;;;;;;26.48;16.13;;;10.50;99.90;;;;;;5034252;28;20041;-62
2022/09/30 06:21:12;;;;;;;23.17;16.92;;;10.50;99.90;;;;;;5032443;28;20050;-62
2022/09/30 06:23:39;;;;;;;22.83;16.95;;;10.50;99.90;;;;;;5032611;28;20068;-66
2022/09/30 06:26:06;;;;;;;23.30;16.00;;;10.60;99.90;;;;;;5015064;28;20392;-60
2022/09/30 06:28:34;;;;;;;22.40;16.58;;;10.60;99.90;;;;;;5030548;28;20041;-63
2022/09/30 06:31:03;;;;;;;23.35;15.18;;;10.50;99.90;;;;;;5032092;28;20432;-62
2022/09/30 06:33:30;;;;;;;22.05;14.15;;;10.60;99.90;;;;;;5031777;28;20121;-61
2022/09/30 06:35:57;;;;;;;27.15;13.30;;;10.60;99.90;;;;;;5025423;28;20048;-63
2022/09/30 06:38:26;;;;;;;27.08;14.48;;;10.60;99.90;;;;;;5032472;28;20512;-63
2022/09/30 06:40:52;;;;;;;20.80;13.95;;;10.60;99.90;;;;;;5030048;28;20068;-62
2022/09/30 06:43:19;;;;;;;20.65;14.45;;;10.60;99.90;;;;;;5033935;28;20095;-62
2022/09/30 06:45:46;;;;;;;28.85;13.85;;;10.70;99.90;;;;;;5015590;28;20076;-65
2022/09/30 06:48:14;;;;;;;19.35;14.18;;;10.70;99.90;;;;;;5030950;28;20040;-63
2022/09/30 06:50:45;;;;;;;28.90;14.52;;;10.70;99.90;;;;;;5013683;28;20439;-63
2022/09/30 06:53:26;;;;;;;19.88;13.55;;;10.70;99.90;;;;;;5031861;28;20433;-65
2022/09/30 06:55:53;;;;;;;19.05;12.85;;;10.70;99.90;;;;;;5027504;28;20045;-63
2022/09/30 06:58:21;;;;;;;19.50;13.93;;;10.80;99.90;;;;;;5013050;28;20545;-60
2022/09/30 07:00:48;;;;;;;17.30;12.60;;;10.80;99.90;;;;;;5031607;28;20042;-62
2022/09/30 07:03:15;;;;;;;22.33;14.82;;;10.80;99.90;;;;;;5031083;28;20037;-62
2022/09/30 07:05:42;;;;;;;22.77;13.85;;;10.80;99.90;;;;;;5033554;28;20038;-60
2022/09/30 07:08:09;;;;;;;17.80;13.65;;;10.80;99.90;;;;;;5031740;28;20388;-63
2022/09/30 07:10:37;;;;;;;19.35;14.55;;;10.90;99.90;;;;;;5032405;28;20041;-63
2022/09/30 07:13:04;;;;;;;18.20;13.93;;;10.90;99.90;;;;;;5033370;28;20485;-63
2022/09/30 07:15:30;;;;;;;21.40;13.85;;;11.00;99.90;;;;;;5033822;28;20112;-61
2022/09/30 07:17:57;;;;;;;18.50;14.52;;;11.00;99.90;;;;;;5034343;28;20048;-63
2022/09/30 07:20:24;;;;;;;21.15;14.80;;;11.00;99.90;;;;;;5033966;28;20077;-64
2022/09/30 07:22:51;;;;;;;19.13;12.85;;;11.10;99.90;;;;;;5033974;28;20042;-63
2022/09/30 07:25:18;;;;;;;18.85;14.35;;;11.10;99.90;;;;;;5033776;28;20076;-61
2022/09/30 07:27:45;;;;;;;18.13;13.93;;;11.10;99.90;;;;;;5033130;28;20034;-64
2022/09/30 07:30:12;;;;;;;16.92;13.73;;;11.10;99.90;;;;;;5027188;28;20421;-62
2022/09/30 07:32:52;;;;;;;19.58;13.95;;;11.10;99.90;;;;;;5013884;28;20475;-63
2022/09/30 07:35:19;;;;;;;18.00;13.85;;;11.10;99.90;;;;;;5030074;28;20473;-63
2022/09/30 07:37:46;;;;;;;18.48;13.70;;;11.10;99.90;;;;;;5026204;28;20038;-65
2022/09/30 07:40:14;;;;;;;19.08;14.93;;;11.10;99.90;;;;;;5013206;28;20072;-64
2022/09/30 07:42:44;;;;;;;17.15;14.18;;;11.10;99.90;;;;;;5031247;28;20546;-63
2022/09/30 07:45:14;;;;;;;16.83;13.50;;;11.10;99.90;;;;;;5031090;28;20037;-65
2022/09/30 07:47:41;;;;;;;17.67;14.45;;;11.10;99.90;;;;;;5025292;28;20044;-61
2022/09/30 07:50:09;;;;;;;19.05;14.45;;;11.10;99.90;;;;;;5030570;28;20129;-61
2022/09/30 07:52:36;;;;;;;17.80;14.48;;;11.10;99.90;;;;;;5013948;28;20551;-62
2022/09/30 07:55:03;;;;;;;18.95;13.43;;;11.10;99.90;;;;;;5042804;28;20120;-63
2022/09/30 07:57:29;;;;;;;18.80;14.65;;;11.20;99.90;;;;;;5035627;28;20045;-63
2022/09/30 07:59:56;;;;;;;18.02;13.93;;;11.20;99.90;;;;;;5034904;28;20116;-61
2022/09/30 08:02:23;;;;;;;18.95;15.63;;;11.20;99.90;;;;;;5021394;28;20045;-63
2022/09/30 08:04:50;;;;;;;19.27;16.27;;;11.20;99.90;;;;;;5043023;28;20041;-61
2022/09/30 08:07:17;;;;;;;34.38;16.50;;;11.30;99.90;;;;;;5033220;28;20513;-63
2022/09/30 08:09:44;;;;;;;30.63;16.02;;;11.40;99.90;;;;;;5031798;28;20084;-63
2022/09/30 08:12:10;;;;;;;18.45;14.50;;;11.40;99.90;;;;;;5022251;28;20037;-66
2022/09/30 08:14:37;;;;;;;16.63;14.30;;;11.50;99.90;;;;;;5040577;28;20049;-64
2022/09/30 08:17:05;;;;;;;17.63;14.38;;;11.50;99.90;;;;;;5039107;28;20100;-65
2022/09/30 08:19:32;;;;;;;16.48;13.15;;;11.60;99.90;;;;;;5043665;28;20543;-63
2022/09/30 08:21:59;;;;;;;17.10;13.38;;;11.70;99.90;;;;;;5051035;28;20083;-64
2022/09/30 08:24:26;;;;;;;16.45;13.98;;;11.80;99.90;;;;;;5013961;28;20045;-60
2022/09/30 08:26:53;;;;;;;16.45;13.20;;;11.80;99.90;;;;;;5033469;28;20045;-64
2022/09/30 08:29:20;;;;;;;15.52;12.65;;;11.90;99.90;;;;;;5035645;28;20037;-64
2022/09/30 08:32:06;;;;;;;14.18;10.85;;;12.00;99.90;;;;;;5034570;28;20042;-64
2022/09/30 08:34:34;;;;;;;16.67;10.90;;;12.10;99.90;;;;;;5037109;28;20459;-65
2022/09/30 08:37:01;;;;;;;11.48;10.13;;;12.30;99.90;;;;;;5037458;28;20051;-64
2022/09/30 08:39:34;;;;;;;12.05;10.40;;;12.40;99.90;;;;;;5034913;28;20128;-66
2022/09/30 08:42:01;;;;;;;11.48;9.45;;;12.50;99.90;;;;;;5039451;28;20061;-64
2022/09/30 08:44:48;;;;;;;10.55;9.02;;;12.60;99.90;;;;;;5034158;28;20046;-64
2022/09/30 08:47:15;;;;;;;12.48;8.82;;;12.80;99.90;;;;;;5040039;28;20037;-65
2022/09/30 08:49:43;;;;;;;12.95;8.80;;;12.90;99.90;;;;;;5042790;28;20068;-66
2022/09/30 08:52:10;;;;;;;14.38;8.93;;;13.00;99.90;;;;;;5038291;28;20108;-64
2022/09/30 08:54:50;;;;;;;10.73;9.48;;;13.20;99.90;;;;;;5039736;28;20041;-63
2022/09/30 08:57:16;;;;;;;10.68;8.52;;;13.40;99.90;;;;;;5019606;28;20045;-64
2022/09/30 08:59:43;;;;;;;8.85;7.60;;;13.50;99.90;;;;;;5036832;28;20136;-63
2022/09/30 09:02:10;;;;;;;10.50;7.47;;;13.60;99.90;;;;;;5034611;28;20077;-63
2022/09/30 09:04:43;;;;;;;11.88;8.15;;;13.70;99.90;;;;;;5030514;28;20489;-63
2022/09/30 09:07:10;;;;;;;14.43;8.00;;;13.80;99.90;;;;;;5033077;28;20488;-66
2022/09/30 09:09:37;;;;;;;10.65;7.35;;;13.80;99.90;;;;;;5042826;28;20044;-62
2022/09/30 09:12:03;;;;;;;7.75;6.85;;;13.80;99.90;;;;;;5037295;28;20144;-64
2022/09/30 09:14:30;;;;;;;9.30;7.13;;;13.90;99.90;;;;;;5032258;28;20129;-64
2022/09/30 09:16:57;;;;;;;9.27;7.47;;;14.00;99.90;;;;;;5038885;28;20046;-63
2022/09/30 09:19:24;;;;;;;11.10;7.80;;;14.00;99.90;;;;;;5035779;28;20038;-62
2022/09/30 09:21:50;;;;;;;9.30;7.68;;;14.10;99.90;;;;;;5034304;28;20038;-66
2022/09/30 09:24:17;;;;;;;10.98;7.68;;;14.10;99.90;;;;;;5031420;28;20033;-65
2022/09/30 09:26:44;;;;;;;11.88;7.85;;;14.20;99.90;;;;;;5041835;28;20068;-63
2022/09/30 09:29:10;;;;;;;10.70;7.88;;;14.20;99.90;;;;;;5039811;28;20068;-62
2022/09/30 09:31:37;;;;;;;9.18;7.75;;;14.30;99.90;;;;;;5015784;28;20487;-64
2022/09/30 09:34:04;;;;;;;10.10;7.45;;;14.30;99.90;;;;;;5018587;28;20060;-60
2022/09/30 09:36:31;;;;;;;9.63;6.90;;;14.40;99.90;;;;;;5036550;28;20455;-60
2022/09/30 09:38:58;;;;;;;11.85;7.93;;;14.40;99.90;;;;;;5035505;28;20120;-63
2022/09/30 09:41:25;;;;;;;12.05;7.13;;;14.50;99.90;;;;;;5045545;28;20033;-60
2022/09/30 09:43:51;;;;;;;10.38;7.50;;;14.60;99.90;;;;;;5040589;28;20083;-60
2022/09/30 09:46:18;;;;;;;9.95;6.63;;;14.60;99.90;;;;;;5034261;28;20310;-61
2022/09/30 09:48:45;;;;;;;9.85;6.07;;;14.70;99.90;;;;;;5032373;28;20030;-61
2022/09/30 09:51:12;;;;;;;9.75;6.38;;;14.70;99.90;;;;;;5034046;28;20042;-62
2022/09/30 09:53:39;;;;;;;8.32;6.22;;;14.70;99.90;;;;;;5033009;28;20489;-65
2022/09/30 09:56:06;;;;;;;10.20;6.15;;;14.70;99.90;;;;;;5036491;28;20065;-62
2022/09/30 09:58:33;;;;;;;11.13;6.20;;;14.80;99.90;;;;;;5032952;28;20076;-64
2022/09/30 10:01:10;;;;;;;8.75;5.68;;;14.80;99.90;;;;;;5036017;28;20045;-61
2022/09/30 10:03:37;;;;;;;9.23;5.13;;;14.90;99.90;;;;;;5036080;28;20037;-63
2022/09/30 10:06:03;;;;;;;5.93;5.28;;;14.90;99.90;;;;;;5033228;28;20121;-63
2022/09/30 10:08:30;;;;;;;8.55;5.10;;;15.00;99.90;;;;;;5033094;28;20213;-63
2022/09/30 10:10:57;;;;;;;6.22;5.00;;;15.10;99.90;;;;;;5032934;28;20124;-64
2022/09/30 10:13:23;;;;;;;7.18;5.20;;;15.10;99.90;;;;;;5033227;28;20460;-62
2022/09/30 10:15:50;;;;;;;10.15;5.78;;;15.10;99.90;;;;;;5054059;28;20053;-63
2022/09/30 10:18:17;;;;;;;6.65;5.55;;;15.20;99.90;;;;;;5039738;28;20037;-62
2022/09/30 10:20:44;;;;;;;8.13;6.03;;;15.20;99.90;;;;;;5030143;28;20055;-64
2022/09/30 10:23:15;;;;;;;6.85;5.50;;;15.20;99.90;;;;;;5037913;28;20117;-65
2022/09/30 10:25:42;;;;;;;9.52;5.18;;;15.20;99.90;;;;;;5028405;28;20756;-64
2022/09/30 10:28:09;;;;;;;9.05;4.88;;;15.30;99.90;;;;;;5033765;28;20059;-62
2022/09/30 10:30:37;;;;;;;7.32;4.97;;;15.30;99.90;;;;;;5014972;28;20080;-65
2022/09/30 10:33:04;;;;;;;5.97;4.57;;;15.40;99.90;;;;;;5032328;28;20037;-63
2022/09/30 10:35:30;;;;;;;6.70;4.65;;;15.40;99.90;;;;;;5019600;28;20468;-64
2022/09/30 10:37:57;;;;;;;6.25;4.85;;;15.40;99.90;;;;;;5037567;28;20037;-61
2022/09/30 10:40:26;;;;;;;6.40;4.32;;;15.40;99.90;;;;;;5041338;28;20124;-67
2022/09/30 10:42:52;;;;;;;5.47;4.68;;;15.50;99.90;;;;;;5031722;28;20535;-64
2022/09/30 10:45:19;;;;;;;6.40;4.22;;;15.60;99.90;;;;;;5046544;28;20047;-65
2022/09/30 10:47:46;;;;;;;5.25;3.90;;;15.60;99.90;;;;;;5044956;28;20044;-64
2022/09/30 10:50:15;;;;;;;6.57;4.30;;;15.70;99.90;;;;;;5033758;28;20095;-65
2022/09/30 10:52:43;;;;;;;4.88;3.80;;;15.70;99.80;;;;;;5034932;28;20041;-62
2022/09/30 10:55:10;;;;;;;5.22;3.80;;;15.80;99.90;;;;;;5037706;28;20550;-63
2022/09/30 10:57:44;;;;;;;4.90;3.50;;;15.90;99.90;;;;;;5016394;28;20125;-64
2022/09/30 11:00:11;;;;;;;7.07;3.72;;;16.00;99.90;;;;;;5036263;28;20056;-63
2022/09/30 11:02:37;;;;;;;4.82;3.85;;;16.00;99.80;;;;;;5033932;28;20064;-63
2022/09/30 11:05:04;;;;;;;7.60;3.70;;;16.10;99.60;;;;;;5033708;28;20036;-63
2022/09/30 11:07:31;;;;;;;5.35;4.15;;;16.10;99.50;;;;;;5033635;28;20042;-63
2022/09/30 11:09:58;;;;;;;5.45;3.78;;;16.20;99.20;;;;;;5016085;28;20095;-64
2022/09/30 11:12:25;;;;;;;15.43;4.13;;;16.20;99.30;;;;;;5033701;28;20121;-61
2022/09/30 11:14:51;;;;;;;6.88;3.83;;;16.20;99.20;;;;;;5036255;28;20053;-60
2022/09/30 11:17:18;;;;;;;9.10;3.67;;;16.20;99.10;;;;;;5037415;28;20160;-61
2022/09/30 11:19:48;;;;;;;7.95;4.15;;;16.20;99.10;;;;;;5037488;28;20049;-61
2022/09/30 11:22:15;;;;;;;5.57;3.80;;;16.30;98.90;;;;;;5036504;28;20395;-62
2022/09/30 11:24:41;;;;;;;5.38;3.63;;;16.30;98.80;;;;;;5025727;28;20041;-62
2022/09/30 11:27:08;;;;;;;5.38;3.47;;;16.30;98.80;;;;;;5035821;28;20048;-61
2022/09/30 11:29:35;;;;;;;5.95;3.53;;;16.30;98.90;;;;;;5032604;28;20034;-67
2022/09/30 11:32:02;;;;;;;6.65;3.13;;;16.40;99.10;;;;;;5046224;28;20064;-63
2022/09/30 11:34:29;;;;;;;5.25;3.60;;;16.50;98.10;;;;;;5026130;28;20045;-64
2022/09/30 11:36:55;;;;;;;4.70;3.33;;;16.50;97.90;;;;;;5041712;28;20055;-62
2022/09/30 11:39:22;;;;;;;4.90;3.35;;;16.60;98.20;;;;;;5044814;28;20067;-61
2022/09/30 11:41:49;;;;;;;19.88;3.42;;;16.70;98.20;;;;;;5034394;28;20120;-61
2022/09/30 11:44:16;;;;;;;4.35;2.60;;;16.70;97.90;;;;;;5038304;28;20041;-62
2022/09/30 11:46:43;;;;;;;5.55;2.47;;;16.80;97.50;;;;;;5031775;28;20112;-63
2022/09/30 11:49:10;;;;;;;5.25;2.67;;;16.80;97.20;;;;;;5032226;28;20615;-62
2022/09/30 11:51:37;;;;;;;10.43;2.75;;;16.80;97.10;;;;;;5037873;28;20086;-62
2022/09/30 11:54:03;;;;;;;3.58;2.10;;;16.90;97.10;;;;;;5040327;28;20069;-62
2022/09/30 11:56:31;;;;;;;6.07;2.38;;;16.90;97.10;;;;;;5030282;28;20054;-62
2022/09/30 11:58:58;;;;;;;4.20;2.42;;;17.00;96.80;;;;;;5032203;28;20096;-64
2022/09/30 12:01:25;;;;;;;3.53;2.30;;;17.00;96.60;;;;;;5037671;28;20514;-62
2022/09/30 12:03:54;;;;;;;3.35;2.03;;;16.90;96.60;;;;;;5039876;28;20041;-61
2022/09/30 12:06:21;;;;;;;3.03;2.20;;;17.00;96.80;;;;;;5027956;28;20068;-61
2022/09/30 12:08:49;;;;;;;3.33;1.73;;;17.00;97.00;;;;;;5028399;28;20041;-62
2022/09/30 12:11:15;;;;;;;4.43;1.98;;;17.00;96.60;;;;;;5035245;28;20037;-62
2022/09/30 12:13:43;;;;;;;3.20;2.00;;;17.00;96.60;;;;;;5036350;28;20078;-63
2022/09/30 12:16:10;;;;;;;3.47;1.92;;;17.00;96.80;;;;;;5029767;28;20038;-63
2022/09/30 12:18:37;;;;;;;6.13;2.17;;;17.00;96.80;;;;;;5029780;28;20060;-63
2022/09/30 12:21:03;;;;;;;5.53;2.00;;;17.00;96.70;;;;;;5038220;28;20045;-64
2022/09/30 12:23:30;;;;;;;3.22;1.80;;;17.00;96.60;;;;;;5032322;28;20041;-65
2022/09/30 12:25:57;;;;;;;2.72;1.40;;;17.00;96.20;;;;;;5039947;28;20037;-61
2022/09/30 12:31:09;;;;;;;7.57;1.58;;;17.00;95.90;;;;;;5027348;28;20045;-62
2022/09/30 12:33:36;;;;;;;4.40;1.73;;;17.00;95.80;;;;;;5038984;28;20378;-64
2022/09/30 12:36:03;;;;;;;3.38;1.50;;;17.00;95.90;;;;;;5046773;28;20387;-64
2022/09/30 12:38:31;;;;;;;4.05;1.65;;;17.10;96.10;;;;;;5051204;28;20087;-63
2022/09/30 12:40:57;;;;;;;3.50;1.38;;;17.10;95.50;;;;;;5039694;28;20045;-63
2022/09/30 12:43:24;;;;;;;3.28;1.40;;;17.10;95.20;;;;;;5011088;28;20034;-63